CheckWX is a tool to help pilots better visualize weather data.  It is not intended as a substitute for an official pre-flight weather briefing.

06:00:37 UTC

KHCD METAR
Hutchinson Municipal-Butler Field Airport
Hutchinson, Minnesota, USA
Current

6 mins ago

KHCD 200555Z AUTO 00000KT 10SM CLR 02/01 A2976 RMK AO2 T00150012 10114 20014 401980014
Observed
Oct-20 @ 05:55 UTC
Visibility
10 SM
Flight Rules
VFR
Cloud Levels
  • Clear skies
Temperature
C / 36°F
Dewpoint
C / 34°F
Humidity
93%
Altimeter
29.76" Hg
Pressure
1007.82 hPa
Previous

24 mins ago

KHCD 200537Z AUTO 00000KT 10SM CLR 02/01 A2976 RMK AO2 T00200013
Observed
Oct-20 @ 05:37 UTC
Visibility
10 SM
Flight Rules
VFR
Cloud Levels
  • Clear skies
Temperature
C / 36°F
Dewpoint
C / 34°F
Humidity
93%
Altimeter
29.76" Hg
Pressure
1007.82 hPa
Previous

46 mins ago

KHCD 200515Z AUTO 00000KT 10SM CLR 03/01 A2976 RMK AO2 T00250013
Observed
Oct-20 @ 05:15 UTC
Visibility
10 SM
Flight Rules
VFR
Cloud Levels
  • Clear skies
Temperature
C / 37°F
Dewpoint
C / 34°F
Humidity
87%
Altimeter
29.76" Hg
Pressure
1007.82 hPa